createdAt,value
2022-12-11T00:02:06.767Z,-3.61
2022-12-11T00:04:33.199Z,-3.52
2022-12-11T00:06:59.645Z,-3.46
2022-12-11T00:09:26.022Z,-3.50
2022-12-11T00:11:52.651Z,-3.42
2022-12-11T00:14:19.026Z,-3.41
2022-12-11T00:16:47.680Z,-3.44
2022-12-11T00:19:14.008Z,-3.51
2022-12-11T00:21:40.337Z,-3.39
2022-12-11T00:24:06.959Z,-3.34
2022-12-11T00:26:33.476Z,-3.27
2022-12-11T00:28:59.869Z,-3.27
2022-12-11T00:31:26.359Z,-3.28
2022-12-11T00:33:52.725Z,-3.21
2022-12-11T00:36:21.820Z,-3.12
2022-12-11T00:38:49.778Z,-3.19
2022-12-11T00:41:17.124Z,-3.18
2022-12-11T00:43:43.761Z,-3.11
2022-12-11T00:46:10.658Z,-3.13
2022-12-11T00:48:37.325Z,-3.10
2022-12-11T00:51:03.919Z,-3.08
2022-12-11T00:53:30.458Z,-3.06
2022-12-11T00:55:57.038Z,-3.01
2022-12-11T00:58:23.721Z,-3.12
2022-12-11T01:00:50.092Z,-3.09
2022-12-11T01:06:56.077Z,-3.05
2022-12-11T01:09:41.069Z,-3.01
2022-12-11T01:12:07.381Z,-3.03
2022-12-11T01:14:33.711Z,-2.92
2022-12-11T01:17:00.095Z,-2.86
2022-12-11T01:19:26.485Z,-2.84
2022-12-11T01:21:52.856Z,-2.80
2022-12-11T01:24:19.304Z,-2.90
2022-12-11T01:26:45.708Z,-2.87
2022-12-11T01:29:12.067Z,-2.80
2022-12-11T01:31:38.674Z,-2.71
2022-12-11T01:34:05.014Z,-2.65
2022-12-11T01:36:31.355Z,-2.60
2022-12-11T01:38:58.037Z,-2.64
2022-12-11T01:41:24.431Z,-2.58
2022-12-11T01:44:04.921Z,-2.56
2022-12-11T01:46:33.724Z,-2.65
2022-12-11T01:49:02.991Z,-2.71
2022-12-11T01:51:33.065Z,-2.67
2022-12-11T01:54:06.100Z,-2.67
2022-12-11T01:56:35.408Z,-2.68
2022-12-11T01:59:07.234Z,-2.57
2022-12-11T02:01:42.484Z,-2.47
2022-12-11T02:04:10.867Z,-2.40
2022-12-11T02:06:48.808Z,-2.48
2022-12-11T02:09:18.945Z,-2.50
2022-12-11T02:12:16.275Z,-2.50
2022-12-11T02:15:04.954Z,-2.51
2022-12-11T02:18:10.248Z,-2.44
2022-12-11T02:20:43.794Z,-2.47
2022-12-11T02:23:13.180Z,-2.36
2022-12-11T02:26:10.753Z,-2.34
2022-12-11T02:28:48.738Z,-2.28
2022-12-11T02:31:34.529Z,-2.29
2022-12-11T02:34:02.986Z,-2.27
2022-12-11T02:36:35.520Z,-2.31
2022-12-11T02:39:04.371Z,-2.30
2022-12-11T02:41:33.602Z,-2.31
2022-12-11T02:44:02.972Z,-2.29
2022-12-11T02:46:30.806Z,-2.20
2022-12-11T02:48:58.245Z,-2.31
2022-12-11T02:51:34.332Z,-2.39
2022-12-11T02:54:02.225Z,-2.41
2022-12-11T02:56:40.632Z,-2.58
2022-12-11T02:59:13.850Z,-2.49
2022-12-11T03:01:40.331Z,-2.44
2022-12-11T03:04:06.793Z,-2.32
2022-12-11T03:06:37.401Z,-2.26
2022-12-11T03:09:05.523Z,-2.24
2022-12-11T03:11:31.883Z,-2.34
2022-12-11T03:13:59.753Z,-2.24
2022-12-11T03:16:35.649Z,-2.22
2022-12-11T03:19:12.608Z,-2.23
2022-12-11T03:21:55.462Z,-2.19
2022-12-11T03:24:52.653Z,-2.18
2022-12-11T03:27:28.045Z,-2.16
2022-12-11T03:30:00.493Z,-2.25
2022-12-11T03:32:38.423Z,-2.28
2022-12-11T03:35:27.396Z,-2.34
2022-12-11T03:37:58.202Z,-2.39
2022-12-11T03:40:26.105Z,-2.36
2022-12-11T03:42:55.815Z,-2.45
2022-12-11T03:45:24.609Z,-2.45
2022-12-11T03:47:53.655Z,-2.35
2022-12-11T03:50:21.836Z,-2.38
2022-12-11T03:52:49.627Z,-2.37
2022-12-11T03:55:19.329Z,-2.28
2022-12-11T03:57:45.696Z,-2.35
2022-12-11T04:00:16.355Z,-2.35
2022-12-11T04:02:43.433Z,-2.35
2022-12-11T04:05:11.780Z,-2.44
2022-12-11T04:07:38.263Z,-2.38
2022-12-11T04:10:05.770Z,-2.30
2022-12-11T04:12:32.180Z,-2.25
2022-12-11T04:15:05.022Z,-2.31
2022-12-11T04:17:54.950Z,-2.34
2022-12-11T04:20:40.659Z,-2.33
2022-12-11T04:23:31.192Z,-2.38
2022-12-11T04:26:08.729Z,-2.38
2022-12-11T04:28:35.536Z,-2.41
2022-12-11T04:31:02.003Z,-2.44
2022-12-11T04:33:28.676Z,-2.43
2022-12-11T04:35:58.477Z,-2.47
2022-12-11T04:38:25.244Z,-2.43
2022-12-11T04:41:01.465Z,-2.44
2022-12-11T04:43:28.271Z,-2.41
2022-12-11T04:46:09.560Z,-2.46
2022-12-11T04:48:36.334Z,-2.44
2022-12-11T04:51:03.164Z,-2.46
2022-12-11T04:53:29.691Z,-2.48
2022-12-11T04:55:56.302Z,-2.48
2022-12-11T04:58:24.634Z,-2.50
2022-12-11T05:00:51.786Z,-2.48
2022-12-11T05:03:18.492Z,-2.48
2022-12-11T05:05:50.544Z,-2.46
2022-12-11T05:08:21.001Z,-2.47
2022-12-11T05:11:02.184Z,-2.42
2022-12-11T05:13:30.031Z,-2.40
2022-12-11T05:15:56.939Z,-2.43
2022-12-11T05:18:23.654Z,-2.42
2022-12-11T05:21:01.714Z,-2.49
2022-12-11T05:23:28.324Z,-2.39
2022-12-11T05:25:56.466Z,-2.35
2022-12-11T05:28:24.965Z,-2.37
2022-12-11T05:30:58.719Z,-2.37
2022-12-11T05:33:25.640Z,-2.39
2022-12-11T05:35:52.682Z,-2.31
2022-12-11T05:38:19.598Z,-2.27
2022-12-11T05:40:59.081Z,-2.29
2022-12-11T05:43:28.111Z,-2.22
2022-12-11T05:45:54.819Z,-2.23
2022-12-11T05:48:21.355Z,-2.26
2022-12-11T05:50:58.553Z,-2.31
2022-12-11T05:53:25.147Z,-2.33
2022-12-11T05:55:51.466Z,-2.36
2022-12-11T05:58:18.326Z,-2.39
2022-12-11T06:00:44.703Z,-2.36
2022-12-11T06:03:11.246Z,-2.36
2022-12-11T06:05:42.160Z,-2.40
2022-12-11T06:08:08.995Z,-2.38
2022-12-11T06:10:35.454Z,-2.36
2022-12-11T06:13:01.791Z,-2.24
2022-12-11T06:15:28.121Z,-2.25
2022-12-11T06:17:54.500Z,-2.23
2022-12-11T06:20:20.813Z,-2.23
2022-12-11T06:22:47.325Z,-2.27
2022-12-11T06:25:13.964Z,-2.28
2022-12-11T06:27:40.418Z,-2.28
2022-12-11T06:30:07.940Z,-2.40
2022-12-11T06:32:34.264Z,-2.39
2022-12-11T06:35:00.608Z,-2.44
2022-12-11T06:37:26.907Z,-2.40
2022-12-11T06:39:53.218Z,-2.42
2022-12-11T06:42:19.577Z,-2.40
2022-12-11T06:44:45.853Z,-2.45
2022-12-11T06:47:12.307Z,-2.33
2022-12-11T06:49:38.611Z,-2.23
2022-12-11T06:52:06.206Z,-2.30
2022-12-11T06:54:32.563Z,-2.18
2022-12-11T06:56:58.883Z,-2.11
2022-12-11T06:59:25.210Z,-2.09
2022-12-11T07:01:51.646Z,-2.04
2022-12-11T07:04:18.036Z,-2.05
2022-12-11T07:06:44.323Z,-2.02
2022-12-11T07:09:11.014Z,-2.07
2022-12-11T07:11:37.340Z,-1.98
2022-12-11T07:14:03.679Z,-2.02
2022-12-11T07:16:30.016Z,-2.02
2022-12-11T07:18:56.394Z,-2.14
2022-12-11T07:21:23.066Z,-2.04
2022-12-11T07:23:50.578Z,-2.02
2022-12-11T07:26:19.591Z,-2.02
2022-12-11T07:28:46.432Z,-2.03
2022-12-11T07:31:15.688Z,-1.99
2022-12-11T07:33:43.214Z,-1.99
2022-12-11T07:36:11.771Z,-2.03
2022-12-11T07:38:38.461Z,-2.04
2022-12-11T07:41:08.451Z,-1.94
2022-12-11T07:43:35.932Z,-1.95
2022-12-11T07:46:08.732Z,-1.89
2022-12-11T07:48:36.723Z,-1.87
2022-12-11T07:51:17.200Z,-1.83
2022-12-11T07:53:45.590Z,-1.84
2022-12-11T07:56:12.296Z,-1.81
2022-12-11T07:58:38.913Z,-1.94
2022-12-11T08:01:06.613Z,-1.95
2022-12-11T08:06:29.265Z,-1.82
2022-12-11T08:08:57.328Z,-1.86
2022-12-11T08:11:24.843Z,-1.91
2022-12-11T08:13:51.167Z,-1.97
2022-12-11T08:16:18.400Z,-1.94
2022-12-11T08:18:46.684Z,-1.92
2022-12-11T08:21:18.836Z,-1.95
2022-12-11T08:23:46.031Z,-1.92
2022-12-11T08:26:31.676Z,-1.82
2022-12-11T08:28:58.733Z,-1.85
2022-12-11T08:31:25.219Z,-1.78
2022-12-11T08:33:52.522Z,-1.74
2022-12-11T08:36:21.328Z,-1.76
2022-12-11T08:38:47.943Z,-1.71
2022-12-11T08:41:20.080Z,-1.83
2022-12-11T08:43:46.906Z,-1.86
2022-12-11T08:46:13.671Z,-1.91
2022-12-11T08:48:41.837Z,-1.90
2022-12-11T08:51:12.161Z,-1.84
2022-12-11T08:53:39.468Z,-1.88
2022-12-11T08:56:08.483Z,-1.68
2022-12-11T08:58:35.706Z,-1.63
2022-12-11T09:01:07.492Z,-1.62
2022-12-11T09:03:33.958Z,-1.61
2022-12-11T09:06:00.359Z,-1.63
2022-12-11T09:08:26.721Z,-1.60
2022-12-11T09:10:53.080Z,-1.71
2022-12-11T09:13:19.423Z,-1.45
2022-12-11T09:15:45.788Z,-1.46
2022-12-11T09:18:12.255Z,-1.52
2022-12-11T09:20:38.556Z,-1.44
2022-12-11T09:23:04.896Z,-1.46
2022-12-11T09:25:31.272Z,-1.59
2022-12-11T09:27:57.653Z,-1.59
2022-12-11T09:30:24.011Z,-1.63
2022-12-11T09:32:51.304Z,-1.45
2022-12-11T09:35:17.743Z,-1.42
2022-12-11T09:37:44.060Z,-1.37
2022-12-11T09:40:12.201Z,-1.36
2022-12-11T09:42:53.467Z,-1.36
2022-12-11T09:45:20.515Z,-1.28
2022-12-11T09:47:54.300Z,-1.40
2022-12-11T09:50:39.502Z,-1.49
2022-12-11T09:53:14.832Z,-1.44
2022-12-11T09:55:59.944Z,-1.48
2022-12-11T09:58:39.077Z,-1.33
2022-12-11T10:01:10.170Z,-1.40
2022-12-11T10:03:42.884Z,-1.40
2022-12-11T10:06:18.035Z,-1.42
2022-12-11T10:08:47.699Z,-1.46
2022-12-11T10:12:05.341Z,-1.48
2022-12-11T10:14:59.363Z,-1.49
2022-12-11T10:17:30.763Z,-1.50
2022-12-11T10:20:05.260Z,-1.49
2022-12-11T10:22:33.169Z,-1.39
2022-12-11T10:25:10.830Z,-1.46
2022-12-11T10:27:39.893Z,-1.53
2022-12-11T10:30:28.348Z,-1.32
2022-12-11T10:33:14.149Z,-1.22
2022-12-11T10:35:48.745Z,-1.30
2022-12-11T10:38:20.483Z,-1.27
2022-12-11T10:40:51.250Z,-1.30
2022-12-11T10:43:17.627Z,-1.21
2022-12-11T10:45:52.491Z,-1.19
2022-12-11T10:48:18.840Z,-1.26
2022-12-11T10:50:55.491Z,-1.22
2022-12-11T10:53:22.251Z,-1.29
2022-12-11T10:55:49.139Z,-1.28
2022-12-11T10:58:22.223Z,-1.27
2022-12-11T11:01:05.968Z,-1.21
2022-12-11T11:03:33.397Z,-1.14
2022-12-11T11:06:17.519Z,-0.96
2022-12-11T11:08:47.248Z,-0.80
2022-12-11T11:11:26.994Z,-0.84
2022-12-11T11:14:12.119Z,-0.77
2022-12-11T11:16:40.316Z,-0.74
2022-12-11T11:19:07.206Z,-0.76
2022-12-11T11:21:35.004Z,-0.66
2022-12-11T11:24:01.381Z,-0.73
2022-12-11T11:26:56.702Z,-0.78
2022-12-11T11:29:28.917Z,-0.68
2022-12-11T11:31:55.232Z,-0.60
2022-12-11T11:34:22.212Z,-0.63
2022-12-11T11:37:00.825Z,-0.65
2022-12-11T11:39:39.464Z,-0.89
2022-12-11T11:42:27.691Z,-0.87
2022-12-11T11:45:10.023Z,-0.71
2022-12-11T11:47:45.086Z,-0.62
2022-12-11T11:50:22.042Z,-0.75
2022-12-11T11:52:55.767Z,-0.65
2022-12-11T11:55:51.846Z,-0.64
2022-12-11T11:58:39.063Z,-0.65
2022-12-11T12:01:12.623Z,-0.77
2022-12-11T12:03:38.970Z,-0.73
2022-12-11T12:06:48.986Z,-0.85
2022-12-11T12:09:49.178Z,-0.73
2022-12-11T12:12:41.565Z,-0.67
2022-12-11T12:15:25.642Z,-0.83
2022-12-11T12:17:57.627Z,-0.84
2022-12-11T12:20:42.744Z,-0.93
2022-12-11T12:23:36.703Z,-1.05
2022-12-11T12:26:11.102Z,-0.92
2022-12-11T12:29:08.588Z,-0.84
2022-12-11T12:31:34.890Z,-0.86
2022-12-11T12:34:24.776Z,-0.79
2022-12-11T12:37:21.799Z,-0.89
2022-12-11T12:40:03.104Z,-0.93
2022-12-11T12:42:50.825Z,-0.82
2022-12-11T12:45:43.277Z,-0.83
2022-12-11T12:48:10.019Z,-0.92
2022-12-11T12:50:47.531Z,-0.84
2022-12-11T12:53:24.651Z,-0.80
2022-12-11T12:55:51.627Z,-0.73
2022-12-11T12:58:39.095Z,-0.69
2022-12-11T13:01:14.921Z,-0.70
2022-12-11T13:04:03.240Z,-0.63
2022-12-11T13:06:34.159Z,-0.67
2022-12-11T13:09:23.452Z,-0.58
2022-12-11T13:11:57.836Z,-0.55
2022-12-11T13:14:30.977Z,-0.51
2022-12-11T13:17:21.954Z,-0.45
2022-12-11T13:19:50.440Z,-0.55
2022-12-11T13:22:21.370Z,-0.52
2022-12-11T13:25:16.434Z,-0.56
2022-12-11T13:27:43.542Z,-0.60
2022-12-11T13:30:16.262Z,-0.66
2022-12-11T13:32:49.433Z,-0.62
2022-12-11T13:35:18.125Z,-0.68
2022-12-11T13:37:46.341Z,-0.74
2022-12-11T13:40:19.839Z,-0.72
2022-12-11T13:42:53.758Z,-0.79
2022-12-11T13:49:06.821Z,-0.87
2022-12-11T13:51:37.850Z,-0.87
2022-12-11T13:54:25.459Z,-0.88
2022-12-11T13:57:07.153Z,-0.83
2022-12-11T13:59:35.966Z,-0.93
2022-12-11T14:02:25.422Z,-0.81
2022-12-11T14:04:59.177Z,-0.82
2022-12-11T14:07:31.821Z,-0.73
2022-12-11T14:10:17.835Z,-0.73
2022-12-11T14:12:48.273Z,-0.61
2022-12-11T14:15:15.568Z,-0.64
2022-12-11T14:17:48.485Z,-0.65
2022-12-11T14:20:22.081Z,-0.69
2022-12-11T14:22:48.681Z,-0.71
2022-12-11T14:25:24.729Z,-0.75
2022-12-11T14:27:54.221Z,-0.74
2022-12-11T14:30:27.350Z,-0.77
2022-12-11T14:32:58.161Z,-0.72
2022-12-11T14:35:39.264Z,-0.64
2022-12-11T14:38:16.728Z,-0.71
2022-12-11T14:40:46.915Z,-0.78
2022-12-11T14:43:48.097Z,-0.66
2022-12-11T14:46:21.925Z,-0.65
2022-12-11T14:49:00.546Z,-0.76
2022-12-11T14:51:33.729Z,-0.72
2022-12-11T14:54:00.705Z,-0.77
2022-12-11T14:56:30.079Z,-0.83
2022-12-11T14:59:02.531Z,-0.82
2022-12-11T15:01:34.258Z,-0.71
2022-12-11T15:04:15.746Z,-0.73
2022-12-11T15:06:47.772Z,-0.86
2022-12-11T15:09:36.138Z,-0.82
2022-12-11T15:12:19.870Z,-0.89
2022-12-11T15:14:53.252Z,-0.90
2022-12-11T15:17:20.602Z,-0.96
2022-12-11T15:20:31.386Z,-0.93
2022-12-11T15:23:01.535Z,-0.96
2022-12-11T15:25:51.748Z,-0.93
2022-12-11T15:28:47.194Z,-0.87
2022-12-11T15:31:27.565Z,-0.81
2022-12-11T15:33:54.082Z,-0.85
2022-12-11T15:36:30.693Z,-0.93
2022-12-11T15:38:57.751Z,-0.91
2022-12-11T15:41:25.122Z,-0.95
2022-12-11T15:43:58.892Z,-0.96
2022-12-11T15:46:26.164Z,-0.96
2022-12-11T15:48:52.687Z,-0.97
2022-12-11T15:51:19.195Z,-0.94
2022-12-11T15:53:45.546Z,-0.90
2022-12-11T15:56:16.306Z,-0.94
2022-12-11T15:58:44.709Z,-0.89
2022-12-11T16:01:11.169Z,-0.86
2022-12-11T16:03:37.499Z,-0.84
2022-12-11T16:06:04.206Z,-0.86
2022-12-11T16:08:30.635Z,-0.90
2022-12-11T16:10:57.102Z,-0.92
2022-12-11T16:13:23.669Z,-0.96
2022-12-11T16:15:51.304Z,-0.96
2022-12-11T16:18:21.469Z,-0.99
2022-12-11T16:20:48.747Z,-1.00
2022-12-11T16:23:17.086Z,-1.03
2022-12-11T16:25:45.308Z,-0.99
2022-12-11T16:28:13.766Z,-1.04
2022-12-11T16:30:40.302Z,-1.00
2022-12-11T16:33:11.992Z,-1.04
2022-12-11T16:35:39.738Z,-1.00
2022-12-11T16:38:06.113Z,-0.98
2022-12-11T16:40:32.494Z,-0.94
2022-12-11T16:42:58.852Z,-0.92
2022-12-11T16:45:26.269Z,-0.94
2022-12-11T16:47:53.097Z,-0.95
2022-12-11T16:50:19.624Z,-0.87
2022-12-11T16:52:46.090Z,-0.84
2022-12-11T16:55:13.095Z,-0.93
2022-12-11T16:57:40.373Z,-0.92
2022-12-11T17:00:08.899Z,-0.88
2022-12-11T17:02:36.234Z,-0.87
2022-12-11T17:05:02.648Z,-0.82
2022-12-11T17:07:29.112Z,-0.78
2022-12-11T17:09:55.415Z,-0.74
2022-12-11T17:12:27.418Z,-0.72
2022-12-11T17:14:54.878Z,-0.73
2022-12-11T17:17:21.419Z,-0.82
2022-12-11T17:19:47.738Z,-0.87
2022-12-11T17:22:14.143Z,-0.85
2022-12-11T17:24:40.499Z,-0.84
2022-12-11T17:27:07.019Z,-0.88
2022-12-11T17:29:33.478Z,-0.86
2022-12-11T17:31:59.969Z,-0.84
2022-12-11T17:34:26.274Z,-0.77
2022-12-11T17:36:52.572Z,-0.73
2022-12-11T17:39:18.921Z,-0.73
2022-12-11T17:41:45.352Z,-0.73
2022-12-11T17:44:12.650Z,-0.74
2022-12-11T17:46:39.311Z,-0.74
2022-12-11T17:49:06.000Z,-0.73
2022-12-11T17:51:32.302Z,-0.78
2022-12-11T17:53:58.827Z,-0.78
2022-12-11T17:56:25.967Z,-0.81
2022-12-11T17:58:52.369Z,-0.84
2022-12-11T18:01:19.045Z,-0.81
2022-12-11T18:03:45.650Z,-0.81
2022-12-11T18:06:14.962Z,-0.83
2022-12-11T18:08:42.439Z,-0.81
2022-12-11T18:11:11.909Z,-0.76
2022-12-11T18:13:38.641Z,-0.78
2022-12-11T18:16:12.913Z,-0.88
2022-12-11T18:18:39.726Z,-0.83
2022-12-11T18:21:06.416Z,-0.91
2022-12-11T18:23:33.406Z,-0.90
2022-12-11T18:26:00.474Z,-0.81
2022-12-11T18:28:26.869Z,-0.80
2022-12-11T18:30:53.347Z,-0.81
2022-12-11T18:33:19.755Z,-0.83
2022-12-11T18:35:49.292Z,-0.82
2022-12-11T18:38:16.280Z,-0.81
2022-12-11T18:40:42.676Z,-0.77
2022-12-11T18:43:09.156Z,-0.79
2022-12-11T18:45:35.513Z,-0.79
2022-12-11T18:48:01.890Z,-0.87
2022-12-11T18:50:28.244Z,-0.81
2022-12-11T18:52:55.165Z,-0.75
2022-12-11T18:55:21.621Z,-0.77
2022-12-11T18:57:48.019Z,-0.77
2022-12-11T19:00:14.876Z,-0.76
2022-12-11T19:02:41.226Z,-0.77
2022-12-11T19:05:07.959Z,-0.75
2022-12-11T19:07:34.278Z,-0.78
2022-12-11T19:10:00.684Z,-0.75
2022-12-11T19:12:27.023Z,-0.71
2022-12-11T19:14:53.386Z,-0.74
2022-12-11T19:17:19.789Z,-0.87
2022-12-11T19:19:47.274Z,-0.92
2022-12-11T19:22:14.897Z,-0.94
2022-12-11T19:24:41.280Z,-0.86
2022-12-11T19:27:13.256Z,-0.87
2022-12-11T19:29:40.113Z,-0.79
2022-12-11T19:32:06.581Z,-0.73
2022-12-11T19:34:32.975Z,-0.72
2022-12-11T19:36:59.484Z,-0.88
2022-12-11T19:39:26.225Z,-1.05
2022-12-11T19:41:52.589Z,-0.91
2022-12-11T19:44:20.062Z,-0.90
2022-12-11T19:46:46.661Z,-0.94
2022-12-11T19:49:13.196Z,-0.93
2022-12-11T19:51:41.573Z,-0.82
2022-12-11T19:54:11.534Z,-0.78
2022-12-11T19:56:38.117Z,-0.81
2022-12-11T19:59:06.633Z,-0.88
2022-12-11T20:01:35.515Z,-0.87
2022-12-11T20:04:07.521Z,-0.79
2022-12-11T20:06:36.777Z,-0.72
2022-12-11T20:09:05.278Z,-0.76
2022-12-11T20:11:33.184Z,-0.86
2022-12-11T20:13:59.893Z,-0.98
2022-12-11T20:16:46.205Z,-1.00
2022-12-11T20:19:12.824Z,-0.94
2022-12-11T20:21:39.163Z,-0.90
2022-12-11T20:24:05.780Z,-0.86
2022-12-11T20:26:35.824Z,-0.92
2022-12-11T20:29:05.183Z,-0.94
2022-12-11T20:31:31.588Z,-0.87
2022-12-11T20:33:58.105Z,-0.90
2022-12-11T20:36:25.805Z,-1.01
2022-12-11T20:38:53.190Z,-0.99
2022-12-11T20:41:21.965Z,-1.14
2022-12-11T20:43:53.193Z,-1.00
2022-12-11T20:46:22.134Z,-0.98
2022-12-11T20:48:48.971Z,-0.99
2022-12-11T20:51:23.862Z,-0.91
2022-12-11T20:53:57.490Z,-0.91
2022-12-11T20:56:26.945Z,-0.89
2022-12-11T20:58:54.501Z,-0.91
2022-12-11T21:01:23.951Z,-0.96
2022-12-11T21:03:52.157Z,-1.02
2022-12-11T21:06:30.911Z,-0.89
2022-12-11T21:08:59.613Z,-0.89
2022-12-11T21:11:26.804Z,-0.83
2022-12-11T21:13:53.658Z,-0.83
2022-12-11T21:16:20.948Z,-0.83
2022-12-11T21:18:48.191Z,-0.94
2022-12-11T21:21:15.494Z,-1.00
2022-12-11T21:23:41.876Z,-0.91
2022-12-11T21:26:08.363Z,-0.93
2022-12-11T21:28:35.691Z,-0.98
2022-12-11T21:31:05.539Z,-0.99
2022-12-11T21:33:31.932Z,-0.97
2022-12-11T21:35:59.561Z,-1.02
2022-12-11T21:38:26.538Z,-1.02
2022-12-11T21:40:54.186Z,-1.04
2022-12-11T21:43:20.895Z,-1.02
2022-12-11T21:46:02.851Z,-0.92
2022-12-11T21:48:29.262Z,-0.84
2022-12-11T21:50:55.973Z,-0.85
2022-12-11T21:53:22.277Z,-0.90
2022-12-11T21:55:48.599Z,-0.87
2022-12-11T21:58:15.582Z,-0.85
2022-12-11T22:00:42.628Z,-0.99
2022-12-11T22:03:08.952Z,-1.00
2022-12-11T22:05:35.261Z,-1.07
2022-12-11T22:08:02.245Z,-1.03
2022-12-11T22:10:28.983Z,-1.03
2022-12-11T22:12:55.374Z,-1.02
2022-12-11T22:15:21.858Z,-1.04
2022-12-11T22:17:48.504Z,-1.13
2022-12-11T22:20:14.835Z,-1.11
2022-12-11T22:22:41.279Z,-1.11
2022-12-11T22:25:08.023Z,-1.08
2022-12-11T22:27:34.737Z,-1.08
2022-12-11T22:30:01.017Z,-0.99
2022-12-11T22:32:27.686Z,-1.09
2022-12-11T22:34:56.131Z,-1.01
2022-12-11T22:37:22.474Z,-0.96
2022-12-11T22:39:48.812Z,-0.96
2022-12-11T22:42:15.472Z,-1.05
2022-12-11T22:44:41.818Z,-1.13
2022-12-11T22:47:08.143Z,-1.17
2022-12-11T22:49:35.706Z,-1.16
2022-12-11T22:52:02.072Z,-1.05
2022-12-11T22:54:28.430Z,-1.06
2022-12-11T22:56:54.739Z,-1.07
2022-12-11T22:59:22.713Z,-1.01
2022-12-11T23:01:49.309Z,-1.03
2022-12-11T23:04:15.677Z,-1.02
2022-12-11T23:06:42.010Z,-0.98
2022-12-11T23:09:08.427Z,-1.00
2022-12-11T23:11:37.043Z,-0.95
2022-12-11T23:14:05.143Z,-0.94
2022-12-11T23:16:31.531Z,-0.95
2022-12-11T23:18:58.540Z,-0.94
2022-12-11T23:21:27.183Z,-0.96
2022-12-11T23:23:53.981Z,-1.00
2022-12-11T23:26:21.459Z,-1.02
2022-12-11T23:28:48.281Z,-0.96
2022-12-11T23:31:15.704Z,-1.01
2022-12-11T23:33:42.214Z,-1.04
2022-12-11T23:36:09.574Z,-1.01
2022-12-11T23:38:36.312Z,-1.11
2022-12-11T23:41:04.264Z,-1.17
2022-12-11T23:43:31.137Z,-1.17
2022-12-11T23:45:57.750Z,-1.11
2022-12-11T23:48:24.480Z,-1.06
2022-12-11T23:50:51.285Z,-1.03
2022-12-11T23:53:17.705Z,-1.01
2022-12-11T23:55:45.214Z,-0.99
2022-12-11T23:58:11.770Z,-0.95
